Time;durP1;ratioP1;P1;durP2;ratioP2;P2;SDS_P1;SDS_P2;PMS_P1;PMS_P2;Temp;Humidity;BMP_temperature;BMP_pressure;BME280_temperature;BME280_humidity;BME280_pressure;Samples;Min_cycle;Max_cycle;Signal;HPM_P1;HPM_P2
2021/12/02 00:02:22;;;;;;;5.30;1.33;;;;;;;8.54;61.53;99775.81;4931940;28;114677;-63
2021/12/02 00:04:50;;;;;;;6.75;1.30;;;;;;;8.56;61.28;99773.94;4922837;28;114573;-63
2021/12/02 00:07:17;;;;;;;4.68;0.80;;;;;;;8.58;61.17;99777.34;4928614;28;124100;-63
2021/12/02 00:09:45;;;;;;;6.40;1.10;;;;;;;8.58;61.07;99782.63;4929798;28;123700;-63
2021/12/02 00:12:12;;;;;;;5.15;1.27;;;;;;;8.59;61.36;99781.72;4929714;28;114983;-63
2021/12/02 00:14:43;;;;;;;4.93;1.25;;;;;;;8.59;61.02;99779.06;4928842;28;115304;-63
2021/12/02 00:17:25;;;;;;;3.97;0.93;;;;;;;8.58;61.06;99782.63;4927093;28;125077;-63
2021/12/02 00:23:11;;;;;;;4.28;1.00;;;;;;;8.57;61.03;99786.22;4932115;28;114720;-63
2021/12/02 00:25:38;;;;;;;3.80;0.90;;;;;;;8.57;61.09;99791.50;4928549;28;114045;-63
2021/12/02 00:28:06;;;;;;;4.72;0.60;;;;;;;8.58;60.96;99798.47;4932212;28;125646;-63
2021/12/02 00:30:34;;;;;;;3.65;0.70;;;;;;;8.57;61.11;99791.50;4931689;28;124091;-63
2021/12/02 00:33:02;;;;;;;4.80;0.95;;;;;;;8.58;61.37;99790.53;4929879;28;114359;-63
2021/12/02 00:35:29;;;;;;;3.47;0.75;;;;;;;8.59;61.10;99789.63;4930468;28;114614;-63
2021/12/02 00:37:58;;;;;;;4.28;0.75;;;;;;;8.60;61.03;99791.31;4927299;28;124804;-62
2021/12/02 00:40:25;;;;;;;4.55;0.77;;;;;;;8.62;61.05;99800.00;4926558;28;123579;-63
2021/12/02 00:42:53;;;;;;;3.60;0.75;;;;;;;8.64;60.95;99792.84;4931971;28;114057;-63
2021/12/02 00:45:20;;;;;;;4.20;0.95;;;;;;;8.66;60.87;99788.34;4928420;28;114817;-62
2021/12/02 00:47:48;;;;;;;2.45;0.65;;;;;;;8.67;61.01;99787.41;4925280;28;124005;-63
2021/12/02 00:50:15;;;;;;;4.30;0.65;;;;;;;8.67;61.16;99782.13;4930062;28;124419;-63
2021/12/02 00:52:43;;;;;;;5.22;1.17;;;;;;;8.67;60.79;99792.69;4928315;28;114816;-63
2021/12/02 00:55:10;;;;;;;4.95;0.88;;;;;;;8.67;60.70;99791.84;4927725;28;113401;-62
2021/12/02 00:57:41;;;;;;;2.38;0.70;;;;;;;8.68;60.98;99798.81;4925653;28;123976;-63
2021/12/02 01:00:09;;;;;;;3.90;0.57;;;;;;;8.66;60.85;99804.16;4926941;28;123907;-62
2021/12/02 01:02:37;;;;;;;5.80;0.70;;;;;;;8.65;60.76;99794.56;4930376;28;115229;-63
2021/12/02 01:05:05;;;;;;;2.38;0.60;;;;;;;8.64;60.92;99792.84;4929372;28;115592;-62
2021/12/02 01:07:32;;;;;;;3.47;0.75;;;;;;;8.63;60.79;99793.78;4927652;28;123706;-63
2021/12/02 01:10:00;;;;;;;4.40;0.65;;;;;;;8.62;60.96;99793.88;4924928;28;123853;-63
2021/12/02 01:12:27;;;;;;;1.95;0.60;;;;;;;8.61;61.06;99808.88;4929623;28;114326;-63
2021/12/02 01:14:54;;;;;;;3.30;0.65;;;;;;;8.60;60.99;99816.84;4922808;28;113943;-63
2021/12/02 01:17:21;;;;;;;1.60;0.70;;;;;;;8.59;60.88;99810.75;4926710;28;124276;-63
2021/12/02 01:19:48;;;;;;;2.13;0.68;;;;;;;8.57;60.88;99807.34;4929724;28;124389;-63
2021/12/02 01:22:16;;;;;;;2.42;0.50;;;;;;;8.57;60.63;99812.59;4927751;28;114629;-63
2021/12/02 01:24:48;;;;;;;2.50;0.50;;;;;;;8.57;60.71;99812.59;4927674;28;113958;-63
2021/12/02 01:27:17;;;;;;;2.95;0.70;;;;;;;8.56;60.79;99821.44;4924595;28;124322;-63
2021/12/02 01:29:45;;;;;;;2.85;0.50;;;;;;;8.54;60.83;99818.88;4926389;28;123934;-63
2021/12/02 01:32:12;;;;;;;2.83;0.50;;;;;;;8.52;60.64;99817.28;4925302;28;114822;-63
2021/12/02 01:34:45;;;;;;;0.85;0.40;;;;;;;8.49;60.87;99825.34;4923414;28;113110;-63
2021/12/02 01:37:14;;;;;;;1.48;0.50;;;;;;;8.47;60.97;99822.78;4929939;28;124594;-63
2021/12/02 01:39:41;;;;;;;3.72;0.47;;;;;;;8.43;60.94;99826.50;4923943;28;123813;-63
2021/12/02 01:42:23;;;;;;;1.05;0.38;;;;;;;8.39;60.89;99817.88;4923218;28;114699;-63
2021/12/02 01:44:56;;;;;;;1.80;0.30;;;;;;;8.39;60.48;99824.94;4926383;28;114318;-63
2021/12/02 01:47:26;;;;;;;1.98;0.50;;;;;;;8.36;60.74;99831.25;4926184;28;124414;-63
2021/12/02 01:49:57;;;;;;;3.97;0.65;;;;;;;8.34;61.02;99822.56;4925092;28;123968;-63
2021/12/02 01:52:31;;;;;;;2.05;0.70;;;;;;;8.32;60.98;99821.75;4926792;28;115874;-63
2021/12/02 01:55:06;;;;;;;2.65;0.73;;;;;;;8.31;60.93;99822.72;4923953;28;115399;-63
2021/12/02 01:57:41;;;;;;;0.80;0.50;;;;;;;8.30;60.71;99815.72;4926456;28;123874;-63
2021/12/02 02:00:12;;;;;;;1.60;0.63;;;;;;;8.28;61.23;99838.69;4919362;28;123884;-63
2021/12/02 02:02:40;;;;;;;2.22;0.55;;;;;;;8.27;60.96;99833.47;4922018;28;114873;-63
2021/12/02 02:05:13;;;;;;;3.17;0.55;;;;;;;8.26;61.15;99830.00;4924449;28;114633;-63
2021/12/02 02:08:04;;;;;;;2.72;0.60;;;;;;;8.25;61.10;99832.72;4925142;28;125947;-63
2021/12/02 02:10:35;;;;;;;4.43;0.80;;;;;;;8.26;61.26;99840.56;4929130;28;123939;-63
2021/12/02 02:13:06;;;;;;;3.55;0.70;;;;;;;8.26;61.33;99840.56;4928236;28;115259;-63
2021/12/02 02:15:34;;;;;;;4.10;0.80;;;;;;;8.25;61.18;99820.41;4928285;28;114118;-64
2021/12/02 02:18:10;;;;;;;5.28;0.60;;;;;;;8.25;61.22;99828.31;4922735;28;124483;-64
2021/12/02 02:20:48;;;;;;;5.05;0.82;;;;;;;8.25;61.27;99830.94;4925177;28;123535;-63
2021/12/02 02:23:15;;;;;;;3.38;0.60;;;;;;;8.24;61.34;99821.31;4929802;28;114121;-63
2021/12/02 02:25:45;;;;;;;2.38;0.60;;;;;;;8.23;61.09;99832.81;4926661;28;114010;-63
2021/12/02 02:28:14;;;;;;;3.10;0.60;;;;;;;8.21;61.51;99837.28;4926745;28;123938;-63
2021/12/02 02:30:41;;;;;;;2.75;0.70;;;;;;;8.20;61.19;99832.97;4928041;28;124305;-63
2021/12/02 02:33:13;;;;;;;2.42;0.60;;;;;;;8.19;61.21;99839.16;4931104;28;114387;-63
2021/12/02 02:35:42;;;;;;;3.63;0.65;;;;;;;8.16;61.51;99840.19;4927885;28;113922;-64
2021/12/02 02:38:10;;;;;;;3.70;0.70;;;;;;;8.16;61.30;99834.06;4918237;28;124131;-65
2021/12/02 02:40:40;;;;;;;3.30;0.60;;;;;;;8.15;61.35;99832.34;4929338;28;124660;-65
2021/12/02 02:43:09;;;;;;;2.38;0.80;;;;;;;8.14;61.58;99830.66;4925178;28;114319;-65
2021/12/02 02:45:37;;;;;;;2.00;0.47;;;;;;;8.12;61.58;99837.78;4924947;28;114871;-64
2021/12/02 02:48:05;;;;;;;0.43;0.40;;;;;;;8.11;61.36;99836.06;4930341;28;124660;-64
2021/12/02 02:50:33;;;;;;;2.95;0.57;;;;;;;8.11;61.48;99836.06;4928319;28;124527;-64
2021/12/02 02:53:12;;;;;;;1.25;0.47;;;;;;;8.10;61.77;99829.06;4933938;28;114479;-64
2021/12/02 02:55:41;;;;;;;2.15;0.60;;;;;;;8.11;61.67;99830.78;4926733;28;113812;-63
2021/12/02 02:58:29;;;;;;;3.58;0.60;;;;;;;8.11;61.78;99846.63;4925103;28;123923;-64
2021/12/02 03:01:05;;;;;;;2.25;0.60;;;;;;;8.11;61.75;99841.34;4929434;28;123780;-64
2021/12/02 03:06:26;;;;;;;2.05;0.43;;;;;;;8.13;61.77;99844.75;4931025;28;114049;-64
2021/12/02 03:09:02;;;;;;;4.30;0.73;;;;;;;8.12;61.40;99837.78;4929304;28;123894;-64
2021/12/02 03:11:38;;;;;;;1.98;0.60;;;;;;;8.10;61.61;99844.91;4927342;28;123606;-65
2021/12/02 03:14:12;;;;;;;2.17;0.80;;;;;;;8.11;61.72;99851.88;4927237;28;114337;-65
2021/12/02 03:16:46;;;;;;;2.25;0.50;;;;;;;8.11;61.73;99846.63;4928325;28;113874;-64
2021/12/02 03:19:26;;;;;;;1.13;0.50;;;;;;;8.11;61.72;99836.06;4925011;28;124789;-64
2021/12/02 03:21:55;;;;;;;4.35;0.70;;;;;;;8.12;61.78;99843.06;4925886;28;124057;-64
2021/12/02 03:24:23;;;;;;;2.28;0.73;;;;;;;8.11;61.99;99841.34;4926764;28;113933;-64
2021/12/02 03:26:50;;;;;;;2.63;0.75;;;;;;;8.13;61.93;99844.75;4927651;28;113896;-64
2021/12/02 03:29:18;;;;;;;1.33;0.50;;;;;;;8.12;61.89;99851.81;4925905;28;123941;-64
2021/12/02 03:31:46;;;;;;;0.90;0.60;;;;;;;8.12;61.68;99849.19;4929434;28;124559;-64
2021/12/02 03:34:13;;;;;;;2.83;0.93;;;;;;;8.12;61.84;99850.97;4928084;28;115078;-65
2021/12/02 03:36:40;;;;;;;1.27;0.60;;;;;;;8.13;61.73;99855.31;4930112;28;115853;-65
2021/12/02 03:39:09;;;;;;;3.10;0.70;;;;;;;8.15;61.72;99850.78;4925289;28;123951;-64
2021/12/02 03:41:39;;;;;;;1.98;0.80;;;;;;;8.16;62.02;99849.88;4926181;28;124620;-65
2021/12/02 03:44:07;;;;;;;3.35;0.90;;;;;;;8.17;61.65;99846.28;4930767;28;114636;-64
2021/12/02 03:46:38;;;;;;;3.15;0.70;;;;;;;8.17;61.65;99851.56;4925846;28;113780;-64
2021/12/02 03:49:05;;;;;;;1.98;0.60;;;;;;;8.18;61.88;99848.00;4931376;28;124741;-65
2021/12/02 03:51:33;;;;;;;1.73;0.65;;;;;;;8.19;61.95;99855.84;4930063;28;127093;-65
2021/12/02 03:54:00;;;;;;;1.63;0.70;;;;;;;8.22;61.75;99852.19;4926545;28;114455;-65
2021/12/02 03:56:27;;;;;;;1.75;0.70;;;;;;;8.23;61.94;99843.38;4930486;28;113667;-65
2021/12/02 03:58:55;;;;;;;4.20;0.80;;;;;;;8.24;61.96;99837.13;4929572;28;124112;-65
2021/12/02 04:01:23;;;;;;;2.10;0.60;;;;;;;8.26;61.56;99840.56;4923792;28;124076;-65
2021/12/02 04:03:52;;;;;;;3.72;0.90;;;;;;;8.26;61.89;99840.56;4928618;28;114420;-65
2021/12/02 04:06:19;;;;;;;3.70;0.90;;;;;;;8.26;61.76;99840.56;4925736;28;114007;-65
2021/12/02 04:08:54;;;;;;;3.20;0.70;;;;;;;8.27;61.48;99847.53;4923844;28;124065;-64
2021/12/02 04:14:36;;;;;;;3.15;0.77;;;;;;;8.22;61.66;99839.00;4930393;28;114034;-65
2021/12/02 04:17:05;;;;;;;1.40;0.80;;;;;;;8.19;61.33;99833.88;4926020;28;114145;-65
2021/12/02 04:19:34;;;;;;;4.07;1.15;;;;;;;8.15;61.34;99837.63;4928467;28;123884;-65
2021/12/02 04:22:01;;;;;;;2.53;1.10;;;;;;;8.09;61.55;99832.66;4926040;28;123785;-65
2021/12/02 04:24:28;;;;;;;4.88;1.02;;;;;;;8.05;61.41;99831.13;4928256;28;115175;-65
2021/12/02 04:26:55;;;;;;;3.53;0.75;;;;;;;7.99;61.39;99841.03;4927400;28;116199;-65
2021/12/02 04:29:25;;;;;;;2.10;0.80;;;;;;;7.96;61.41;99838.53;4924415;28;123857;-65
2021/12/02 04:31:53;;;;;;;1.55;0.80;;;;;;;7.91;61.35;99835.31;4929975;28;124257;-65
2021/12/02 04:34:21;;;;;;;3.47;0.75;;;;;;;7.87;61.68;99839.00;4927214;28;114678;-65
2021/12/02 04:36:48;;;;;;;4.82;0.65;;;;;;;7.85;61.46;99846.13;4930481;28;114303;-65
2021/12/02 04:39:18;;;;;;;4.75;0.90;;;;;;;7.84;61.35;99848.88;4928208;28;124134;-65
2021/12/02 04:41:46;;;;;;;2.22;0.65;;;;;;;7.80;61.37;99853.44;4930795;28;124439;-65
2021/12/02 04:44:18;;;;;;;5.00;0.77;;;;;;;7.77;61.55;99864.13;4931142;28;114892;-64
2021/12/02 04:46:45;;;;;;;3.38;0.70;;;;;;;7.73;61.59;99862.56;4928886;28;114702;-65
2021/12/02 04:49:13;;;;;;;1.80;0.60;;;;;;;7.71;61.69;99870.56;4929118;28;124592;-65
2021/12/02 04:51:40;;;;;;;3.22;0.70;;;;;;;7.71;61.64;99859.16;4930137;28;124563;-65
2021/12/02 04:54:07;;;;;;;2.38;0.60;;;;;;;7.70;61.68;99862.72;4927068;28;114486;-65
2021/12/02 04:56:35;;;;;;;1.70;0.45;;;;;;;7.69;61.62;99858.38;4930081;28;113934;-65
2021/12/02 04:59:02;;;;;;;3.90;0.65;;;;;;;7.66;61.50;99850.63;4921027;28;123851;-65
2021/12/02 05:01:29;;;;;;;3.47;0.60;;;;;;;7.63;61.89;99845.47;4928839;28;123733;-65
2021/12/02 05:03:56;;;;;;;3.80;0.65;;;;;;;7.58;61.75;99851.84;4926831;28;114131;-64
2021/12/02 05:06:24;;;;;;;2.15;0.70;;;;;;;7.55;61.51;99854.66;4929285;28;113723;-64
2021/12/02 05:08:51;;;;;;;1.33;0.57;;;;;;;7.52;61.70;99865.31;4926652;28;124176;-64
2021/12/02 05:11:18;;;;;;;4.40;0.55;;;;;;;7.50;61.51;99861.06;4928096;28;124629;-64
2021/12/02 05:13:45;;;;;;;1.75;0.52;;;;;;;7.48;61.81;99874.31;4930682;28;114920;-64
2021/12/02 05:16:12;;;;;;;1.40;0.55;;;;;;;7.44;61.56;99872.75;4926523;28;115089;-64
2021/12/02 05:18:40;;;;;;;2.33;0.60;;;;;;;7.43;61.56;99878.94;4921690;28;124096;-64
2021/12/02 05:21:07;;;;;;;2.60;0.63;;;;;;;7.41;61.76;99878.16;4928287;28;123880;-64
2021/12/02 05:23:35;;;;;;;1.98;0.68;;;;;;;7.38;61.89;99878.28;4926782;28;113033;-64
2021/12/02 05:26:02;;;;;;;1.20;0.52;;;;;;;7.35;61.94;99881.09;4928989;28;114079;-64
2021/12/02 05:28:29;;;;;;;2.05;0.60;;;;;;;7.33;61.85;99880.31;4930820;28;124005;-64
2021/12/02 05:30:56;;;;;;;2.40;0.50;;;;;;;7.31;61.92;99880.38;4926706;28;124669;-64
2021/12/02 05:33:23;;;;;;;3.22;0.63;;;;;;;7.30;61.95;99877.81;4930011;28;114049;-64
2021/12/02 05:35:51;;;;;;;1.50;0.60;;;;;;;7.31;62.00;99876.88;4925272;28;114254;-64
2021/12/02 05:38:18;;;;;;;1.92;0.60;;;;;;;7.32;62.11;99875.94;4925372;28;124349;-64
2021/12/02 05:40:45;;;;;;;3.58;0.60;;;;;;;7.31;61.70;99884.75;4928131;28;123852;-64
2021/12/02 05:43:12;;;;;;;2.63;0.65;;;;;;;7.31;61.94;99898.81;4928484;28;114318;-64
2021/12/02 05:45:39;;;;;;;2.33;0.73;;;;;;;7.29;61.89;99883.97;4928362;28;114102;-64
2021/12/02 05:48:06;;;;;;;2.38;0.60;;;;;;;7.29;62.07;99883.97;4927597;28;124095;-64
2021/12/02 05:50:33;;;;;;;1.33;0.47;;;;;;;7.29;62.14;99900.66;4926625;28;124610;-64
2021/12/02 05:53:01;;;;;;;0.75;0.50;;;;;;;7.29;61.89;99905.06;4931087;28;114361;-64
2021/12/02 05:55:28;;;;;;;3.95;0.60;;;;;;;7.29;62.22;99902.41;4924448;28;114609;-64
2021/12/02 05:57:55;;;;;;;3.00;0.73;;;;;;;7.29;61.87;99910.31;4925197;28;123910;-64
2021/12/02 06:00:22;;;;;;;1.92;0.60;;;;;;;7.31;62.13;99913.72;4927991;28;122937;-64
2021/12/02 06:02:50;;;;;;;3.30;0.70;;;;;;;7.31;62.26;99924.28;4929316;28;115328;-64
2021/12/02 06:05:20;;;;;;;1.45;0.60;;;;;;;7.32;62.16;99932.09;4928015;28;115313;-65
2021/12/02 06:07:53;;;;;;;2.10;0.60;;;;;;;7.31;62.13;99929.53;4920369;28;124686;-65
2021/12/02 06:10:21;;;;;;;1.75;0.57;;;;;;;7.32;62.06;99926.00;4919999;28;124344;-65
2021/12/02 06:12:48;;;;;;;3.13;0.50;;;;;;;7.31;61.76;99919.00;4928308;28;114250;-66
2021/12/02 06:15:16;;;;;;;2.35;0.55;;;;;;;7.26;62.09;99906.06;4931790;28;115126;-66
2021/12/02 06:17:43;;;;;;;1.85;0.43;;;;;;;7.22;61.87;99921.16;4928128;28;123903;-65
2021/12/02 06:20:13;;;;;;;1.13;0.50;;;;;;;7.17;61.64;99928.41;4920039;28;124100;-65
2021/12/02 06:22:41;;;;;;;0.95;0.40;;;;;;;7.12;61.90;99919.88;4930206;28;114096;-65
2021/12/02 06:27:42;;;;;;;1.20;0.47;;;;;;;7.04;61.62;99927.25;4920854;28;124896;-65
2021/12/02 06:30:11;;;;;;;1.58;0.50;;;;;;;7.02;61.79;99939.63;4926034;28;123964;-65
2021/12/02 06:32:38;;;;;;;2.30;0.43;;;;;;;7.01;62.06;99937.94;4928283;28;115386;-65
2021/12/02 06:35:06;;;;;;;1.48;0.50;;;;;;;6.99;61.87;99950.31;4929657;28;114998;-65
2021/12/02 06:37:34;;;;;;;1.13;0.50;;;;;;;6.97;61.73;99952.16;4927396;28;124345;-65
2021/12/02 06:40:02;;;;;;;1.88;0.70;;;;;;;6.93;62.00;99956.72;4923972;28;124179;-65
2021/12/02 06:42:29;;;;;;;1.38;0.60;;;;;;;6.92;61.94;99959.41;4929627;28;114870;-65
2021/12/02 06:44:59;;;;;;;1.45;0.60;;;;;;;6.91;61.82;99962.94;4924648;28;114248;-65
2021/12/02 06:47:39;;;;;;;1.25;0.60;;;;;;;6.90;61.57;99972.63;4930420;28;123990;-65
2021/12/02 06:50:15;;;;;;;2.10;0.60;;;;;;;6.87;61.93;99961.38;4923479;28;123832;-66
2021/12/02 06:52:43;;;;;;;2.03;0.70;;;;;;;6.82;62.08;99957.19;4928489;28;115148;-66
2021/12/02 06:55:11;;;;;;;1.27;0.60;;;;;;;6.81;61.87;99973.88;4928002;28;115549;-66
2021/12/02 06:57:39;;;;;;;1.20;0.60;;;;;;;6.79;61.82;99980.97;4922997;28;124035;-66
2021/12/02 07:00:09;;;;;;;0.82;0.73;;;;;;;6.78;62.14;99971.41;4923937;28;123779;-66
2021/12/02 07:02:37;;;;;;;3.00;0.70;;;;;;;6.79;61.99;99965.19;4926810;28;113005;-65
2021/12/02 07:05:07;;;;;;;1.75;0.70;;;;;;;6.80;61.89;99966.91;4929594;28;112849;-65
2021/12/02 07:07:37;;;;;;;1.90;0.60;;;;;;;6.80;61.82;99964.28;4928926;28;123918;-65
2021/12/02 07:10:07;;;;;;;2.25;0.85;;;;;;;6.79;61.94;99954.66;4925968;28;122575;-65
2021/12/02 07:12:35;;;;;;;1.70;0.80;;;;;;;6.77;61.71;99953.88;4925576;28;114427;-65
2021/12/02 07:15:11;;;;;;;1.40;0.82;;;;;;;6.78;61.62;99958.25;4923944;28;114066;-65
2021/12/02 07:17:38;;;;;;;;;;;;;;;6.73;61.54;99960.19;4926197;28;124155;-65
2021/12/02 07:20:08;;;;;;;3.40;1.38;;;;;;;6.71;61.50;99956.78;4927877;28;123894;-64
2021/12/02 07:22:35;;;;;;;3.05;1.00;;;;;;;6.68;61.65;99972.69;4923106;28;114572;-65
2021/12/02 07:25:04;;;;;;;2.40;0.80;;;;;;;6.66;61.53;99979.81;4926266;28;115010;-65
2021/12/02 07:27:32;;;;;;;3.53;1.00;;;;;;;6.63;61.55;99982.59;4927025;28;124976;-65
2021/12/02 07:29:59;;;;;;;2.40;1.00;;;;;;;6.59;61.85;99983.59;4926505;28;124098;-66
2021/12/02 07:32:33;;;;;;;3.13;1.10;;;;;;;6.55;61.70;99982.88;4926564;28;114093;-65
2021/12/02 07:35:04;;;;;;;4.88;1.20;;;;;;;6.52;61.52;99992.72;4925275;28;114160;-65
2021/12/02 07:37:32;;;;;;;1.98;0.98;;;;;;;6.49;61.54;99998.09;4930940;28;123802;-65
2021/12/02 07:40:01;;;;;;;2.15;1.05;;;;;;;6.48;61.70;99996.34;4929778;28;123813;-65
2021/12/02 07:42:28;;;;;;;3.17;1.20;;;;;;;6.43;61.53;100000.03;4929796;28;115199;-65
2021/12/02 07:44:55;;;;;;;4.65;1.25;;;;;;;6.41;61.89;100004.50;4930692;28;114476;-64
2021/12/02 07:47:24;;;;;;;3.20;1.30;;;;;;;6.41;61.76;100007.16;4932547;28;124013;-65
2021/12/02 07:49:51;;;;;;;4.90;2.00;;;;;;;6.41;62.10;100012.41;4925581;28;123706;-65
2021/12/02 07:52:21;;;;;;;4.10;1.13;;;;;;;6.40;62.04;100005.44;4932238;28;114960;-65
2021/12/02 07:54:51;;;;;;;2.85;1.50;;;;;;;6.40;61.96;100015.97;4930532;28;113827;-63
2021/12/02 07:57:19;;;;;;;5.05;1.58;;;;;;;6.40;62.16;100021.22;4926202;28;123763;-63
2021/12/02 07:59:50;;;;;;;4.82;1.30;;;;;;;6.41;62.13;100017.66;4931682;28;124141;-63
2021/12/02 08:02:18;;;;;;;2.47;1.17;;;;;;;6.42;62.05;100016.75;4944552;28;113147;-64
2021/12/02 08:04:45;;;;;;;4.93;1.30;;;;;;;6.44;62.08;100006.16;4932096;28;114345;-64
2021/12/02 08:07:12;;;;;;;2.13;0.98;;;;;;;6.47;62.08;100005.19;4930153;28;124622;-64
2021/12/02 08:09:39;;;;;;;1.80;1.10;;;;;;;6.48;62.15;100012.13;4929653;28;124232;-64
2021/12/02 08:12:07;;;;;;;3.15;1.05;;;;;;;6.49;62.28;100024.38;4929500;28;114432;-64
2021/12/02 08:14:34;;;;;;;3.25;0.90;;;;;;;6.50;62.32;100026.09;4931908;28;113806;-64
2021/12/02 08:17:03;;;;;;;3.15;1.10;;;;;;;6.52;62.21;100030.38;4929530;28;124675;-64
2021/12/02 08:19:31;;;;;;;3.70;1.02;;;;;;;6.53;62.33;100026.81;4932176;28;123662;-64
2021/12/02 08:21:58;;;;;;;3.15;0.90;;;;;;;6.55;62.61;100039.91;4928909;28;113969;-64
2021/12/02 08:24:26;;;;;;;4.78;1.20;;;;;;;6.58;62.55;100045.06;4928198;28;115007;-64
2021/12/02 08:26:53;;;;;;;4.22;1.20;;;;;;;6.61;62.43;100047.53;4928786;28;124527;-64
2021/12/02 08:29:22;;;;;;;3.70;1.00;;;;;;;6.63;62.75;100043.94;4925468;28;123097;-64
2021/12/02 08:31:49;;;;;;;3.53;0.90;;;;;;;6.66;62.42;100058.75;4927663;28;115185;-64
2021/12/02 08:34:17;;;;;;;2.67;0.68;;;;;;;6.67;62.48;100055.19;4927657;28;116583;-64
2021/12/02 08:36:53;;;;;;;3.75;0.90;;;;;;;6.72;62.78;100063.75;4927712;28;124615;-63
2021/12/02 08:39:27;;;;;;;3.22;1.00;;;;;;;6.74;62.49;100067.19;4927359;28;123566;-64
2021/12/02 08:41:55;;;;;;;6.03;1.02;;;;;;;6.79;63.01;100075.72;4932034;28;114944;-64
2021/12/02 08:44:25;;;;;;;1.92;1.02;;;;;;;6.82;62.73;100080.88;4928160;28;114045;-64
2021/12/02 08:46:53;;;;;;;4.10;0.95;;;;;;;6.84;62.72;100083.44;4927948;28;124892;-64
2021/12/02 08:49:22;;;;;;;5.15;0.90;;;;;;;6.84;62.49;100088.72;4929827;28;125028;-64
2021/12/02 08:51:51;;;;;;;5.50;0.80;;;;;;;6.87;62.97;100092.97;4930654;28;114539;-64
2021/12/02 08:54:19;;;;;;;2.97;0.80;;;;;;;6.89;62.85;100096.41;4933346;28;114023;-64
2021/12/02 08:56:47;;;;;;;1.70;0.90;;;;;;;6.91;62.72;100094.56;4934603;28;123891;-63
2021/12/02 08:59:14;;;;;;;2.92;1.10;;;;;;;6.91;63.28;100099.81;4932309;28;123419;-64
2021/12/02 09:01:42;;;;;;;2.58;0.90;;;;;;;6.92;62.62;100102.41;4925033;28;114836;-64
2021/12/02 09:04:10;;;;;;;3.85;0.80;;;;;;;6.93;62.83;100114.66;4930505;28;97770;-63
2021/12/02 09:06:38;;;;;;;3.38;1.20;;;;;;;6.92;62.71;100122.59;4925116;28;123953;-63
2021/12/02 09:09:05;;;;;;;2.88;0.60;;;;;;;6.91;62.31;100127.03;4927533;28;124373;-63
2021/12/02 09:11:34;;;;;;;1.73;0.90;;;;;;;6.90;62.53;100129.72;4931110;28;113440;-63
2021/12/02 09:14:04;;;;;;;2.20;0.80;;;;;;;6.89;62.53;100127.97;4932657;28;113001;-63
2021/12/02 09:16:33;;;;;;;2.50;0.80;;;;;;;6.87;62.53;100129.81;4931213;28;124126;-63
2021/12/02 09:19:00;;;;;;;3.63;0.90;;;;;;;6.86;62.55;100134.25;4922662;28;123899;-63
2021/12/02 09:21:28;;;;;;;2.63;1.15;;;;;;;6.87;62.27;100124.56;4924632;28;115035;-63
2021/12/02 09:23:55;;;;;;;3.80;0.88;;;;;;;6.86;62.52;100138.66;4929194;28;115374;-63
2021/12/02 09:26:22;;;;;;;2.28;0.90;;;;;;;6.87;62.32;100137.72;4919470;28;125557;-63
2021/12/02 09:28:53;;;;;;;4.43;0.90;;;;;;;6.90;62.58;100140.25;4929651;28;123943;-63
2021/12/02 09:31:22;;;;;;;2.20;0.88;;;;;;;6.92;62.71;100146.28;4918150;28;114313;-63
2021/12/02 09:33:49;;;;;;;3.55;0.90;;;;;;;6.96;62.72;100145.25;4930476;28;113879;-63
2021/12/02 09:36:17;;;;;;;2.60;0.90;;;;;;;6.99;62.73;100145.13;4931636;28;123796;-63
2021/12/02 09:38:45;;;;;;;3.42;0.70;;;;;;;7.04;63.00;100140.50;4930783;28;123922;-63
2021/12/02 09:41:13;;;;;;;2.53;0.82;;;;;;;7.06;62.50;100146.56;4927627;28;113196;-63
2021/12/02 09:43:40;;;;;;;2.95;0.70;;;;;;;7.07;62.69;100145.66;4920252;28;114268;-64
2021/12/02 09:46:08;;;;;;;1.40;0.75;;;;;;;7.05;62.33;100142.22;4919805;28;124383;-64
2021/12/02 09:48:37;;;;;;;2.83;0.98;;;;;;;7.05;62.49;100149.28;4914168;28;123593;-64
2021/12/02 09:51:09;;;;;;;1.95;0.90;;;;;;;7.04;62.47;100143.13;4932010;28;114314;-63
2021/12/02 09:54:00;;;;;;;1.75;0.90;;;;;;;7.04;62.43;100145.78;4926805;28;114135;-63
2021/12/02 09:56:32;;;;;;;2.72;1.05;;;;;;;7.04;62.35;100143.13;4921447;28;124292;-63
2021/12/02 09:59:24;;;;;;;4.00;1.55;;;;;;;7.04;62.53;100145.78;4930381;28;124649;-63
2021/12/02 10:01:56;;;;;;;3.55;1.35;;;;;;;7.05;62.61;100139.59;4929905;28;114431;-63
2021/12/02 10:04:25;;;;;;;3.88;0.95;;;;;;;7.06;62.73;100141.28;4928613;28;113231;-63
2021/12/02 10:07:19;;;;;;;3.53;1.17;;;;;;;7.08;62.70;100139.44;4923361;28;123707;-63
2021/12/02 10:12:47;;;;;;;4.05;1.42;;;;;;;7.17;63.01;100144.34;4927160;28;115994;-63
2021/12/02 10:15:16;;;;;;;2.10;1.00;;;;;;;7.21;62.67;100151.22;4926874;28;115475;-63
2021/12/02 10:20:19;;;;;;;3.05;1.10;;;;;;;7.27;62.56;100149.22;4927929;28;125404;-63
2021/12/02 10:23:11;;;;;;;;;;;;;;;7.28;62.69;100151.78;4930132;28;114641;-63
2021/12/02 10:25:45;;;;;;;1.23;0.95;;;;;;;7.32;62.87;100157.78;4925342;28;113862;-63
2021/12/02 10:28:18;;;;;;;2.78;1.10;;;;;;;7.32;62.82;100153.38;4930834;28;125227;-63
2021/12/02 10:30:50;;;;;;;2.13;1.25;;;;;;;7.36;62.83;100160.22;4927403;28;123809;-63
2021/12/02 10:33:31;;;;;;;3.50;1.20;;;;;;;7.38;62.75;100146.97;4929443;28;114218;-62
2021/12/02 10:35:59;;;;;;;5.72;1.30;;;;;;;7.41;62.92;100152.13;4928279;28;113989;-62
2021/12/02 10:38:46;;;;;;;2.35;1.23;;;;;;;7.43;62.66;100150.28;4926953;28;124360;-62
2021/12/02 10:41:21;;;;;;;2.40;1.13;;;;;;;7.47;62.78;100146.59;4924639;28;124012;-62
2021/12/02 10:44:26;;;;;;;3.20;1.02;;;;;;;7.52;62.51;100160.41;4911101;28;113785;-63
2021/12/02 10:47:07;;;;;;;2.88;0.73;;;;;;;7.58;62.62;100157.50;4870109;28;113724;-62
2021/12/02 10:49:47;;;;;;;2.90;0.88;;;;;;;7.62;62.52;100165.28;4930865;28;123960;-62
2021/12/02 10:52:17;;;;;;;1.42;0.90;;;;;;;7.68;62.78;100180.84;4922260;28;123813;-62
2021/12/02 10:54:49;;;;;;;1.70;0.90;;;;;;;7.70;62.74;100178.97;4927873;28;114475;-62
2021/12/02 10:57:21;;;;;;;2.47;0.90;;;;;;;7.72;62.51;100183.28;4925133;28;113931;-63
2021/12/02 10:59:55;;;;;;;2.10;1.08;;;;;;;7.76;62.61;100178.69;4914673;28;124100;-63
2021/12/02 11:02:32;;;;;;;3.42;0.93;;;;;;;7.80;62.65;100178.50;4927581;28;123605;-63
2021/12/02 11:05:11;;;;;;;2.88;1.00;;;;;;;7.86;62.88;100206.38;4920125;28;115093;-60
2021/12/02 11:07:41;;;;;;;3.67;0.80;;;;;;;7.93;62.69;100192.00;4925869;28;114832;-60
2021/12/02 11:10:12;;;;;;;2.08;0.70;;;;;;;8.00;62.86;100197.84;4918108;28;123796;-60
2021/12/02 11:12:44;;;;;;;1.52;0.90;;;;;;;8.05;62.80;100195.03;4924230;28;123901;-60
2021/12/02 11:15:23;;;;;;;2.17;0.80;;;;;;;8.07;62.33;100187.91;4926512;28;114366;-61
2021/12/02 11:17:53;;;;;;;2.13;0.70;;;;;;;8.07;62.28;100174.72;4918380;28;114106;-61
2021/12/02 11:20:32;;;;;;;2.15;0.80;;;;;;;8.07;62.05;100166.81;4939822;28;124353;-61
2021/12/02 11:23:19;;;;;;;0.90;0.60;;;;;;;8.10;62.50;100171.91;4940223;28;123571;-61
2021/12/02 11:26:01;;;;;;;1.13;0.60;;;;;;;8.13;62.24;100177.06;4931618;28;114884;-61
2021/12/02 11:28:35;;;;;;;1.73;0.80;;;;;;;8.16;62.14;100184.84;4931259;28;113780;-61
2021/12/02 11:31:11;;;;;;;2.17;0.70;;;;;;;8.21;62.41;100171.44;4923524;28;124681;-61
2021/12/02 11:33:39;;;;;;;1.23;0.60;;;;;;;8.25;62.33;100176.50;4924840;28;123923;-62
2021/12/02 11:36:17;;;;;;;1.42;0.70;;;;;;;8.29;62.09;100178.06;4932943;28;114730;-61
2021/12/02 11:38:45;;;;;;;2.63;0.70;;;;;;;8.32;62.20;100172.63;4930982;28;114315;-61
2021/12/02 11:41:14;;;;;;;1.65;0.70;;;;;;;8.36;61.91;100176.88;4932402;28;124071;-62
2021/12/02 11:43:41;;;;;;;1.95;0.70;;;;;;;8.38;62.03;100182.94;4932022;28;123577;-61
2021/12/02 11:46:09;;;;;;;2.22;0.70;;;;;;;8.45;62.30;100198.50;4930772;28;114727;-61
2021/12/02 11:48:42;;;;;;;2.53;0.70;;;;;;;8.50;62.34;100201.78;4930951;28;113624;-61
2021/12/02 11:51:12;;;;;;;1.98;0.70;;;;;;;8.54;62.00;100209.47;4929744;28;124028;-61
2021/12/02 11:53:40;;;;;;;2.25;0.60;;;;;;;8.58;61.81;100204.91;4928937;28;123939;-61
2021/12/02 11:56:11;;;;;;;1.20;0.90;;;;;;;8.61;61.84;100220.63;4931259;28;115834;-61
2021/12/02 11:58:38;;;;;;;0.93;0.63;;;;;;;8.63;62.06;100218.75;4931257;28;114869;-61
2021/12/02 12:01:08;;;;;;;1.02;0.60;;;;;;;8.65;61.85;100222.19;4927998;28;123877;-61
2021/12/02 12:03:41;;;;;;;1.10;0.50;;;;;;;8.65;61.74;100222.19;4931408;28;124596;-61